Boom, Belgium
Current Conditions -  °F | °C
As of 6:50 PM on Tuesday 21 Oct 2014 (Local Time) from EBAW Reporting Station
Broken Clouds Broken Clouds  
Wind Chill: 50°   Ceiling: 4800
Heat Index: 50°   Visibility: 6mi
Dew Point: 39°   Wind: 16mph
Humidity: 66%   Direction: 290°WNW
Pressure: 29.71"   Gusts: NA
Location:  51.09°N, 4.37°E
Report Text: EBAW 211650Z 29014KT 9999 FEW028CB BKN048 10/04 Q1006 TEMPO 28020G35KT 3500 TSRA
Loading
Personal Weather Stations






























Interactive Weather Map
Tropical Storm Tracking
New forecast layout! Learn more

10-Day Weather Forecast

Advertisements
Track Severe Weather on mobile